Time,TemperatureF,DewpointF,PressureIn,WindDirection,WindDirectionDegrees,WindSpeedMPH,WindSpeedGustMPH,Humidity,HourlyPrecipIn,Conditions,Clouds,dailyrainin,SoftwareType,DateUTC
2013-06-30 00:00:00,76.0,73.0,29.81,SW,223,6.0,18.0,91,0.00,,,0.06,weatherlink.com 1.10,2013-06-30 04:00:00,
2013-06-30 00:15:00,75.9,73.0,29.81,SSW,213,4.0,13.0,91,0.00,,,0.00,weatherlink.com 1.10,2013-06-30 04:15:00,
2013-06-30 00:30:00,76.0,73.0,29.81,SW,235,1.0,18.0,91,0.00,,,0.00,weatherlink.com 1.10,2013-06-30 04:30:00,
2013-06-30 00:45:00,75.8,73.0,29.81,SSW,211,9.0,16.0,91,0.01,,,0.01,weatherlink.com 1.10,2013-06-30 04:45:00,
2013-06-30 01:00:00,75.2,73.0,29.81,SSW,213,5.0,17.0,91,0.04,,,0.04,weatherlink.com 1.10,2013-06-30 05:00:00,
2013-06-30 01:15:00,74.8,72.0,29.80,West,264,4.0,18.0,91,0.05,,,0.05,weatherlink.com 1.10,2013-06-30 05:15:00,
2013-06-30 01:30:00,74.6,72.0,29.81,SSW,200,3.0,10.0,91,0.08,,,0.08,weatherlink.com 1.10,2013-06-30 05:30:00,
2013-06-30 01:45:00,74.5,72.0,29.79,SW,215,1.0,12.0,91,0.08,,,0.09,weatherlink.com 1.10,2013-06-30 05:45:00,
2013-06-30 02:00:00,74.4,72.0,29.79,SSW,196,4.0,10.0,91,0.05,,,0.09,weatherlink.com 1.10,2013-06-30 06:00:00,
2013-06-30 02:15:00,74.8,72.0,29.78,SSW,202,2.0,8.0,92,0.05,,,0.10,weatherlink.com 1.10,2013-06-30 06:15:00,
2013-06-30 02:30:00,75.3,73.0,29.78,ESE,105,2.0,11.0,91,0.03,,,0.11,weatherlink.com 1.10,2013-06-30 06:30:00,
2013-06-30 02:45:00,75.3,73.0,29.79,SSW,199,6.0,14.0,91,0.02,,,0.11,weatherlink.com 1.10,2013-06-30 06:45:00,
2013-06-30 03:00:00,75.0,72.0,29.78,SW,223,5.0,11.0,91,0.04,,,0.13,weatherlink.com 1.10,2013-06-30 07:00:00,
2013-06-30 03:15:00,75.1,72.0,29.78,South,186,4.0,11.0,91,0.07,,,0.17,weatherlink.com 1.10,2013-06-30 07:15:00,
2013-06-30 03:30:00,75.3,73.0,29.77,SW,221,2.0,14.0,91,0.24,,,0.35,weatherlink.com 1.10,2013-06-30 07:30:00,
2013-06-30 03:45:00,75.3,73.0,29.77,SSW,210,5.0,11.0,91,0.24,,,0.35,weatherlink.com 1.10,2013-06-30 07:45:00,
2013-06-30 04:00:00,75.6,73.0,29.77,SSW,194,5.0,15.0,92,0.22,,,0.35,weatherlink.com 1.10,2013-06-30 08:00:00,
2013-06-30 04:15:00,75.3,73.0,29.77,South,186,5.0,11.0,91,0.17,,,0.35,weatherlink.com 1.10,2013-06-30 08:15:00,
2013-06-30 04:30:00,75.3,73.0,29.77,SSW,192,4.0,11.0,91,0.00,,,0.35,weatherlink.com 1.10,2013-06-30 08:30:00,
2013-06-30 04:45:00,75.3,73.0,29.77,South,185,2.0,18.0,91,0.01,,,0.36,weatherlink.com 1.10,2013-06-30 08:45:00,
2013-06-30 05:00:00,75.1,72.0,29.78,South,188,4.0,19.0,91,0.03,,,0.38,weatherlink.com 1.10,2013-06-30 09:00:00,
2013-06-30 05:15:00,74.7,72.0,29.78,SSW,200,4.0,12.0,91,0.03,,,0.38,weatherlink.com 1.10,2013-06-30 09:15:00,
2013-06-30 05:30:00,74.4,72.0,29.79,SE,139,6.0,16.0,91,0.03,,,0.38,weatherlink.com 1.10,2013-06-30 09:30:00,
2013-06-30 05:46:00,74.2,72.0,29.80,SSE,159,4.0,14.0,91,0.04,,,0.40,weatherlink.com 1.10,2013-06-30 09:46:00,
2013-06-30 06:01:00,74.4,72.0,29.82,South,175,4.0,19.0,91,0.08,,,0.46,weatherlink.com 1.10,2013-06-30 10:01:00,
2013-06-30 06:16:00,73.3,71.0,29.83,SW,221,1.0,10.0,91,0.37,,,0.75,weatherlink.com 1.10,2013-06-30 10:16:00,
2013-06-30 06:31:00,72.6,70.0,29.83,West,271,1.0,6.0,91,0.39,,,0.77,weatherlink.com 1.10,2013-06-30 10:31:00,
2013-06-30 06:46:00,72.6,70.0,29.82,West,273,0.0,4.0,91,0.39,,,0.79,weatherlink.com 1.10,2013-06-30 10:46:00,
2013-06-30 07:01:00,72.2,70.0,29.82,West,273,4.0,4.0,92,0.30,,,0.80,weatherlink.com 1.10,2013-06-30 11:01:00,
2013-06-30 07:16:00,72.3,70.0,29.82,West,273,0.0,1.0,92,0.05,,,0.80,weatherlink.com 1.10,2013-06-30 11:16:00,
2013-06-30 07:31:00,72.6,70.0,29.83,West,273,0.0,6.0,92,0.25,,,1.02,weatherlink.com 1.10,2013-06-30 11:31:00,
2013-06-30 07:46:00,73.1,71.0,29.84,West,273,0.0,2.0,92,0.23,,,1.02,weatherlink.com 1.10,2013-06-30 11:46:00,
2013-06-30 08:01:00,73.6,71.0,29.84,West,273,0.0,0.0,92,0.22,,,1.02,weatherlink.com 1.10,2013-06-30 12:01:00,
2013-06-30 08:16:00,74.1,72.0,29.84,West,273,0.0,0.0,92,0.22,,,1.02,weatherlink.com 1.10,2013-06-30 12:16:00,
2013-06-30 08:31:00,75.0,73.0,29.84,West,273,0.0,0.0,92,0.00,,,1.02,weatherlink.com 1.10,2013-06-30 12:31:00,
2013-06-30 08:46:00,75.4,73.0,29.84,West,272,0.0,2.0,92,0.07,,,1.09,weatherlink.com 1.10,2013-06-30 12:46:00,
2013-06-30 09:01:00,75.0,72.0,29.84,West,272,0.0,3.0,91,0.07,,,1.09,weatherlink.com 1.10,2013-06-30 13:01:00,
2013-06-30 09:16:00,75.7,73.0,29.84,West,269,0.0,1.0,92,0.08,,,1.10,weatherlink.com 1.10,2013-06-30 13:16:00,
2013-06-30 09:31:00,75.8,73.0,29.84,SW,233,0.0,6.0,92,0.15,,,1.17,weatherlink.com 1.10,2013-06-30 13:31:00,
2013-06-30 09:46:00,75.7,73.0,29.83,SSW,194,1.0,3.0,91,0.13,,,1.22,weatherlink.com 1.10,2013-06-30 13:46:00,
2013-06-30 10:01:00,76.3,74.0,29.84,SSW,194,0.0,4.0,92,0.13,,,1.22,weatherlink.com 1.10,2013-06-30 14:01:00,
2013-06-30 10:16:00,75.9,73.0,29.84,SSE,166,6.0,6.0,91,0.11,,,1.22,weatherlink.com 1.10,2013-06-30 14:16:00,
2013-06-30 10:31:00,74.6,72.0,29.84,South,182,4.0,17.0,91,0.08,,,1.25,weatherlink.com 1.10,2013-06-30 14:31:00,
2013-06-30 10:46:00,73.1,70.0,29.84,SSW,206,4.0,14.0,91,0.04,,,1.26,weatherlink.com 1.10,2013-06-30 14:46:00,
2013-06-30 11:01:00,72.8,70.0,29.86,SSW,209,0.0,6.0,91,0.05,,,1.27,weatherlink.com 1.10,2013-06-30 15:01:00,
2013-06-30 11:16:00,73.1,70.0,29.87,WSW,257,3.0,5.0,91,0.05,,,1.27,weatherlink.com 1.10,2013-06-30 15:16:00,
2013-06-30 11:31:00,73.4,71.0,29.87,West,261,0.0,4.0,91,0.03,,,1.28,weatherlink.com 1.10,2013-06-30 15:31:00,
2013-06-30 11:46:00,74.2,72.0,29.87,West,261,2.0,2.0,92,0.03,,,1.29,weatherlink.com 1.10,2013-06-30 15:46:00,
2013-06-30 12:01:00,75.2,73.0,29.86,West,261,0.0,4.0,92,0.02,,,1.29,weatherlink.com 1.10,2013-06-30 16:01:00,
2013-06-30 12:16:00,75.7,73.0,29.87,West,261,1.0,4.0,92,0.02,,,1.29,weatherlink.com 1.10,2013-06-30 16:16:00,
2013-06-30 12:31:00,76.3,74.0,29.86,South,182,2.0,6.0,91,0.01,,,1.29,weatherlink.com 1.10,2013-06-30 16:31:00,
2013-06-30 12:46:00,76.1,73.0,29.86,SSE,150,4.0,7.0,91,0.00,,,1.29,weatherlink.com 1.10,2013-06-30 16:46:00,
2013-06-30 13:01:00,76.6,74.0,29.85,SE,144,2.0,9.0,91,0.00,,,1.29,weatherlink.com 1.10,2013-06-30 17:01:00,
2013-06-30 13:16:00,77.6,75.0,29.85,SSE,158,3.0,9.0,91,0.00,,,1.29,weatherlink.com 1.10,2013-06-30 17:16:00,
2013-06-30 13:31:00,77.0,74.0,29.85,SSE,158,3.0,9.0,91,0.00,,,1.29,weatherlink.com 1.10,2013-06-30 17:31:00,
2013-06-30 13:46:00,76.8,74.0,29.85,SSW,194,1.0,9.0,91,0.00,,,1.29,weatherlink.com 1.10,2013-06-30 17:46:00,
2013-06-30 14:01:00,76.8,74.0,29.86,SSE,159,0.0,7.0,91,0.00,,,1.29,weatherlink.com 1.10,2013-06-30 18:01:00,
2013-06-30 14:16:00,77.2,75.0,29.85,SSW,199,3.0,11.0,91,0.01,,,1.30,weatherlink.com 1.10,2013-06-30 18:16:00,
2013-06-30 14:31:00,77.2,75.0,29.86,SSW,211,1.0,13.0,91,0.01,,,1.30,weatherlink.com 1.10,2013-06-30 18:31:00,
2013-06-30 14:46:00,77.7,75.0,29.85,SSW,195,3.0,12.0,91,0.01,,,1.30,weatherlink.com 1.10,2013-06-30 18:46:00,
2013-06-30 15:01:00,79.1,76.0,29.85,South,173,4.0,14.0,91,0.01,,,1.30,weatherlink.com 1.10,2013-06-30 19:01:00,
2013-06-30 15:16:00,79.6,77.0,29.85,South,182,2.0,11.0,91,0.00,,,1.30,weatherlink.com 1.10,2013-06-30 19:16:00,
2013-06-30 15:31:00,80.2,76.0,29.85,South,185,2.0,8.0,88,0.00,,,1.30,weatherlink.com 1.10,2013-06-30 19:31:00,
2013-06-30 15:46:00,80.5,77.0,29.85,SE,134,4.0,10.0,88,0.00,,,1.30,weatherlink.com 1.10,2013-06-30 19:46:00,
2013-06-30 16:01:00,81.1,77.0,29.85,South,184,5.0,10.0,86,0.00,,,1.30,weatherlink.com 1.10,2013-06-30 20:01:00,
2013-06-30 16:16:00,81.2,77.0,29.84,South,169,1.0,12.0,86,0.00,,,1.30,weatherlink.com 1.10,2013-06-30 20:16:00,
2013-06-30 16:31:00,81.2,77.0,29.84,SSW,211,5.0,11.0,86,0.00,,,1.30,weatherlink.com 1.10,2013-06-30 20:31:00,
2013-06-30 16:46:00,81.5,77.0,29.83,South,188,1.0,9.0,85,0.00,,,1.30,weatherlink.com 1.10,2013-06-30 20:46:00,
2013-06-30 17:01:00,80.4,76.0,29.84,South,179,4.0,8.0,85,0.00,,,1.30,weatherlink.com 1.10,2013-06-30 21:01:00,
2013-06-30 17:16:00,80.0,76.0,29.83,South,190,4.0,9.0,86,0.00,,,1.30,weatherlink.com 1.10,2013-06-30 21:16:00,
2013-06-30 17:31:00,79.7,75.0,29.84,SSW,205,7.0,7.0,86,0.00,,,1.30,weatherlink.com 1.10,2013-06-30 21:31:00,
2013-06-30 17:46:00,79.4,75.0,29.84,SSW,202,0.0,9.0,86,0.00,,,1.30,weatherlink.com 1.10,2013-06-30 21:46:00,
2013-06-30 18:01:00,79.1,75.0,29.84,SW,224,1.0,10.0,86,0.00,,,1.30,weatherlink.com 1.10,2013-06-30 22:01:00,
2013-06-30 18:16:00,78.6,75.0,29.85,SSW,206,1.0,10.0,87,0.00,,,1.30,weatherlink.com 1.10,2013-06-30 22:16:00,
2013-06-30 18:31:00,78.2,74.0,29.86,SSW,194,7.0,7.0,88,0.00,,,1.30,weatherlink.com 1.10,2013-06-30 22:31:00,
2013-06-30 18:46:00,78.3,75.0,29.87,SSW,201,2.0,7.0,88,0.00,,,1.30,weatherlink.com 1.10,2013-06-30 22:46:00,
2013-06-30 19:01:00,78.7,75.0,29.87,SSW,210,0.0,9.0,89,0.00,,,1.30,weatherlink.com 1.10,2013-06-30 23:01:00,
2013-06-30 19:16:00,78.9,76.0,29.87,SE,135,0.0,10.0,89,0.00,,,1.30,weatherlink.com 1.10,2013-06-30 23:16:00,
2013-06-30 19:31:00,79.1,76.0,29.87,South,184,2.0,9.0,90,0.00,,,1.30,weatherlink.com 1.10,2013-06-30 23:31:00,
2013-06-30 19:46:00,79.0,76.0,29.87,SW,216,3.0,10.0,90,0.00,,,1.30,weatherlink.com 1.10,2013-06-30 23:46:00,
2013-06-30 20:01:00,78.6,76.0,29.88,SSW,206,2.0,6.0,90,0.00,,,1.30,weatherlink.com 1.10,2013-07-01 00:01:00,
2013-06-30 20:16:00,78.2,75.0,29.88,SE,136,1.0,7.0,90,0.00,,,1.30,weatherlink.com 1.10,2013-07-01 00:16:00,
2013-06-30 20:31:00,78.0,75.0,29.89,SW,214,1.0,8.0,90,0.00,,,1.30,weatherlink.com 1.10,2013-07-01 00:31:00,
2013-06-30 20:46:00,77.7,75.0,29.89,SSE,163,5.0,8.0,90,0.00,,,1.30,weatherlink.com 1.10,2013-07-01 00:46:00,
2013-06-30 21:01:00,77.6,75.0,29.89,SSW,205,0.0,9.0,90,0.00,,,1.30,weatherlink.com 1.10,2013-07-01 01:01:00,
2013-06-30 21:17:00,77.6,75.0,29.89,ESE,122,4.0,11.0,91,0.00,,,1.30,weatherlink.com 1.10,2013-07-01 01:17:00,
2013-06-30 21:31:00,77.5,75.0,29.89,SW,217,0.0,8.0,91,0.00,,,1.30,weatherlink.com 1.10,2013-07-01 01:31:00,
2013-06-30 21:46:00,77.6,75.0,29.90,SW,228,0.0,9.0,91,0.00,,,1.30,weatherlink.com 1.10,2013-07-01 01:46:00,
2013-06-30 22:02:00,77.7,75.0,29.90,SSW,193,1.0,7.0,91,0.00,,,1.30,weatherlink.com 1.10,2013-07-01 02:02:00,
2013-06-30 22:17:00,77.5,75.0,29.91,SW,232,2.0,11.0,91,0.00,,,1.30,weatherlink.com 1.10,2013-07-01 02:17:00,
2013-06-30 22:32:00,77.5,75.0,29.91,SSW,213,5.0,8.0,91,0.00,,,1.30,weatherlink.com 1.10,2013-07-01 02:32:00,
2013-06-30 22:47:00,77.6,75.0,29.91,SW,225,3.0,10.0,91,0.00,,,1.30,weatherlink.com 1.10,2013-07-01 02:47:00,
2013-06-30 23:02:00,77.7,75.0,29.92,SW,225,1.0,9.0,91,0.00,,,1.30,weatherlink.com 1.10,2013-07-01 03:02:00,
2013-06-30 23:17:00,77.9,75.0,29.91,South,185,0.0,8.0,91,0.00,,,1.30,weatherlink.com 1.10,2013-07-01 03:17:00,
2013-06-30 23:32:00,77.9,75.0,29.91,SSW,211,0.0,7.0,91,0.00,,,1.30,weatherlink.com 1.10,2013-07-01 03:32:00,
2013-06-30 23:47:00,78.0,75.0,29.90,SSE,162,3.0,8.0,91,0.00,,,1.30,weatherlink.com 1.10,2013-07-01 03:47:00,